createdAt,value
2023-04-09T00:00:29.345Z,6.53
2023-04-09T00:02:57.418Z,6.54
2023-04-09T00:05:24.554Z,6.58
2023-04-09T00:07:52.122Z,6.64
2023-04-09T00:10:19.086Z,6.70
2023-04-09T00:12:46.238Z,6.73
2023-04-09T00:15:20.904Z,6.75
2023-04-09T00:17:56.652Z,6.79
2023-04-09T00:20:23.810Z,6.83
2023-04-09T00:22:52.107Z,6.87
2023-04-09T00:25:20.316Z,6.96
2023-04-09T00:27:47.465Z,7.06
2023-04-09T00:30:14.461Z,7.18
2023-04-09T00:32:41.854Z,7.30
2023-04-09T00:35:09.358Z,7.38
2023-04-09T00:37:36.872Z,7.48
2023-04-09T00:40:05.545Z,7.55
2023-04-09T00:42:38.388Z,7.58
2023-04-09T00:45:06.571Z,7.59
2023-04-09T00:47:35.373Z,7.70
2023-04-09T00:50:03.543Z,7.81
2023-04-09T00:52:31.377Z,7.75
2023-04-09T00:55:01.080Z,7.76
2023-04-09T00:57:29.051Z,7.85
2023-04-09T00:59:56.614Z,7.93
2023-04-09T01:02:23.605Z,7.94
2023-04-09T01:04:51.703Z,7.84
2023-04-09T01:07:18.712Z,7.81
2023-04-09T01:10:00.647Z,7.82
2023-04-09T01:12:47.195Z,7.86
2023-04-09T01:15:18.528Z,7.76
2023-04-09T01:18:11.772Z,7.56
2023-04-09T01:20:38.966Z,7.54
2023-04-09T01:23:33.821Z,7.55
2023-04-09T01:26:29.962Z,7.47
2023-04-09T01:28:57.889Z,7.47
2023-04-09T01:31:31.167Z,7.45
2023-04-09T01:34:00.939Z,7.48
2023-04-09T01:36:31.472Z,7.53
2023-04-09T01:39:01.835Z,7.46
2023-04-09T01:41:32.704Z,7.55
2023-04-09T01:44:02.052Z,7.55
2023-04-09T01:46:30.260Z,7.63
2023-04-09T01:48:58.240Z,7.56
2023-04-09T01:51:27.487Z,7.51
2023-04-09T01:53:55.178Z,7.37
2023-04-09T01:56:22.144Z,7.25
2023-04-09T01:58:49.422Z,7.13
2023-04-09T02:01:58.820Z,6.97
2023-04-09T02:04:52.415Z,6.79
2023-04-09T02:07:25.984Z,6.68
2023-04-09T02:09:55.221Z,6.51
2023-04-09T02:12:24.372Z,6.39
2023-04-09T02:14:52.854Z,6.32
2023-04-09T02:17:22.926Z,6.27
2023-04-09T02:19:49.981Z,6.24
2023-04-09T02:22:17.461Z,6.28
2023-04-09T02:24:49.154Z,6.30
2023-04-09T02:27:16.978Z,6.32
2023-04-09T02:29:46.034Z,6.31
2023-04-09T02:32:13.805Z,6.30
2023-04-09T02:34:41.541Z,6.30
2023-04-09T02:37:09.097Z,6.30
2023-04-09T02:39:36.821Z,6.26
2023-04-09T02:42:08.244Z,6.22
2023-04-09T02:44:38.206Z,6.18
2023-04-09T02:47:05.599Z,6.16
2023-04-09T02:49:33.025Z,6.11
2023-04-09T02:52:00.767Z,6.06
2023-04-09T02:54:27.832Z,6.03
2023-04-09T02:56:55.427Z,5.96
2023-04-09T02:59:23.074Z,5.90
2023-04-09T03:01:52.584Z,5.87
2023-04-09T03:04:23.417Z,5.87
2023-04-09T03:06:55.366Z,5.85
2023-04-09T03:09:23.128Z,5.80
2023-04-09T03:11:52.283Z,5.62
2023-04-09T03:14:21.336Z,5.57
2023-04-09T03:16:49.801Z,5.54
2023-04-09T03:19:17.064Z,5.46
2023-04-09T03:21:45.588Z,5.42
2023-04-09T03:24:14.365Z,5.37
2023-04-09T03:26:43.898Z,5.29
2023-04-09T03:29:12.236Z,5.26
2023-04-09T03:31:40.441Z,5.24
2023-04-09T03:34:09.391Z,5.23
2023-04-09T03:36:40.219Z,5.27
2023-04-09T03:39:18.406Z,5.33
2023-04-09T03:41:48.040Z,5.37
2023-04-09T03:44:18.386Z,5.45
2023-04-09T03:47:09.959Z,5.50
2023-04-09T03:49:42.009Z,5.57
2023-04-09T03:52:24.289Z,5.70
2023-04-09T03:55:04.221Z,5.82
2023-04-09T03:57:33.982Z,5.89
2023-04-09T04:00:03.511Z,5.98
2023-04-09T04:02:41.977Z,6.09
2023-04-09T04:05:12.601Z,6.26
2023-04-09T04:07:47.025Z,6.35
2023-04-09T04:10:21.819Z,6.48
2023-04-09T04:12:50.334Z,6.59
2023-04-09T04:15:43.154Z,6.70
2023-04-09T04:18:15.085Z,6.92
2023-04-09T04:20:46.159Z,7.08
2023-04-09T04:23:15.284Z,7.24
2023-04-09T04:26:13.380Z,7.39
2023-04-09T04:28:43.134Z,7.55
2023-04-09T04:31:20.137Z,7.76
2023-04-09T04:33:48.090Z,7.99
2023-04-09T04:36:18.124Z,8.23
2023-04-09T04:38:53.632Z,8.35
2023-04-09T04:41:44.514Z,8.54
2023-04-09T04:44:23.111Z,8.90
2023-04-09T04:47:01.786Z,9.31
2023-04-09T04:49:31.030Z,9.68
2023-04-09T04:52:01.198Z,10.03
2023-04-09T04:54:30.744Z,10.77
2023-04-09T04:57:04.272Z,11.55
2023-04-09T04:59:42.662Z,12.06
2023-04-09T05:02:16.552Z,12.27
2023-04-09T05:05:11.757Z,12.59
2023-04-09T05:07:49.812Z,12.85
2023-04-09T05:10:19.551Z,13.28
2023-04-09T05:12:49.094Z,13.81
2023-04-09T05:15:30.593Z,14.28
2023-04-09T05:18:01.976Z,14.65
2023-04-09T05:20:29.935Z,15.11
2023-04-09T05:23:06.782Z,15.39
2023-04-09T05:25:40.656Z,15.74
2023-04-09T05:28:14.560Z,16.05
2023-04-09T05:30:46.791Z,16.35
2023-04-09T05:33:14.887Z,16.38
2023-04-09T05:35:43.195Z,16.75
2023-04-09T05:38:11.416Z,17.18
2023-04-09T05:40:39.283Z,17.71
2023-04-09T05:43:12.402Z,17.80
2023-04-09T05:45:43.666Z,17.90
2023-04-09T05:48:11.766Z,18.31
2023-04-09T05:50:51.447Z,18.17
2023-04-09T05:53:25.651Z,17.90
2023-04-09T05:55:53.034Z,17.34
2023-04-09T05:58:24.526Z,17.01
2023-04-09T06:00:53.343Z,17.00
2023-04-09T06:03:21.288Z,17.29
2023-04-09T06:05:50.554Z,18.01
2023-04-09T06:08:18.194Z,18.56
2023-04-09T06:10:46.053Z,18.80
2023-04-09T06:13:13.794Z,19.47
2023-04-09T06:15:42.255Z,19.86
2023-04-09T06:18:10.594Z,20.28
2023-04-09T06:20:38.177Z,20.92
2023-04-09T06:23:10.713Z,21.76
2023-04-09T06:25:39.138Z,22.15
2023-04-09T06:28:06.207Z,22.58
2023-04-09T06:30:36.403Z,23.00
2023-04-09T06:33:04.816Z,23.26
2023-04-09T06:35:33.128Z,23.50
2023-04-09T06:38:00.966Z,24.09
2023-04-09T06:40:28.779Z,23.51
2023-04-09T06:42:57.017Z,23.79
2023-04-09T06:45:31.750Z,23.26
2023-04-09T06:48:01.431Z,22.73
2023-04-09T06:50:29.096Z,22.29
2023-04-09T06:52:58.202Z,21.85
2023-04-09T06:55:27.379Z,21.55
2023-04-09T06:57:55.036Z,21.42
2023-04-09T07:00:24.025Z,21.36
2023-04-09T07:02:53.263Z,21.27
2023-04-09T07:05:21.039Z,22.07
2023-04-09T07:07:50.412Z,23.03
2023-04-09T07:10:19.021Z,23.11
2023-04-09T07:12:49.041Z,22.79
2023-04-09T07:15:17.351Z,22.23
2023-04-09T07:17:45.248Z,21.56
2023-04-09T07:20:12.951Z,20.87
2023-04-09T07:22:40.674Z,20.19
2023-04-09T07:25:08.950Z,19.67
2023-04-09T07:27:36.691Z,19.17
2023-04-09T07:30:04.930Z,18.73
2023-04-09T07:32:32.999Z,18.36
2023-04-09T07:35:00.860Z,18.05
2023-04-09T07:37:29.488Z,17.87
2023-04-09T07:39:56.762Z,17.79
2023-04-09T07:42:25.293Z,17.92
2023-04-09T07:44:52.967Z,18.06
2023-04-09T07:47:21.386Z,17.94
2023-04-09T07:49:49.633Z,18.24
2023-04-09T07:52:17.187Z,18.37
2023-04-09T07:54:45.199Z,18.67
2023-04-09T07:57:13.170Z,18.98
2023-04-09T07:59:40.874Z,19.18
2023-04-09T08:02:09.877Z,19.13
2023-04-09T08:04:38.734Z,19.24
2023-04-09T08:07:07.092Z,19.49
2023-04-09T08:09:35.032Z,19.08
2023-04-09T08:12:02.973Z,19.15
2023-04-09T08:14:30.091Z,19.00
2023-04-09T08:16:58.256Z,19.06
2023-04-09T08:19:26.936Z,19.33
2023-04-09T08:21:54.751Z,19.72
2023-04-09T08:24:23.236Z,20.80
2023-04-09T08:26:50.996Z,21.70
2023-04-09T08:29:18.960Z,22.33
2023-04-09T08:31:46.830Z,22.75
2023-04-09T08:34:16.853Z,22.90
2023-04-09T08:36:47.882Z,22.83
2023-04-09T08:39:19.650Z,23.00
2023-04-09T08:41:51.032Z,23.53
2023-04-09T08:44:19.572Z,23.74
2023-04-09T08:46:47.172Z,23.35
2023-04-09T08:49:14.766Z,23.24
2023-04-09T08:51:47.403Z,23.43
2023-04-09T08:54:20.667Z,23.67
2023-04-09T08:56:48.994Z,23.76
2023-04-09T08:59:20.427Z,23.90
2023-04-09T09:01:54.950Z,23.84
2023-04-09T09:04:23.410Z,23.51
2023-04-09T09:06:53.704Z,23.23
2023-04-09T09:09:22.934Z,23.48
2023-04-09T09:11:52.104Z,24.16
2023-04-09T09:14:20.851Z,24.45
2023-04-09T09:16:58.388Z,24.12
2023-04-09T09:19:26.869Z,24.30
2023-04-09T09:21:58.750Z,24.46
2023-04-09T09:24:26.904Z,24.70
2023-04-09T09:26:54.734Z,25.62
2023-04-09T09:29:22.163Z,26.70
2023-04-09T09:31:52.011Z,26.62
2023-04-09T09:34:22.010Z,26.61
2023-04-09T09:36:50.205Z,25.69
2023-04-09T09:39:18.615Z,25.55
2023-04-09T09:41:47.601Z,25.47
2023-04-09T09:44:32.210Z,25.84
2023-04-09T09:46:59.985Z,26.34
2023-04-09T09:49:27.078Z,25.93
2023-04-09T09:52:00.285Z,26.70
2023-04-09T09:54:32.419Z,26.78
2023-04-09T09:57:05.118Z,26.91
2023-04-09T09:59:38.227Z,26.91
2023-04-09T10:02:08.129Z,27.33
2023-04-09T10:04:39.734Z,28.26
2023-04-09T10:07:09.129Z,29.23
2023-04-09T10:09:41.149Z,30.16
2023-04-09T10:12:09.677Z,30.29
2023-04-09T10:14:39.639Z,30.67
2023-04-09T10:17:07.540Z,30.87
2023-04-09T10:19:41.855Z,30.57
2023-04-09T10:22:17.234Z,31.05
2023-04-09T10:24:46.710Z,31.64
2023-04-09T10:27:17.520Z,32.18
2023-04-09T10:29:47.079Z,31.88
2023-04-09T10:32:24.414Z,31.40
2023-04-09T10:34:53.127Z,30.98
2023-04-09T10:37:26.520Z,30.22
2023-04-09T10:39:55.244Z,29.48
2023-04-09T10:42:37.366Z,29.24
2023-04-09T10:45:09.150Z,29.24
2023-04-09T10:47:41.821Z,29.54
2023-04-09T10:50:29.765Z,30.01
2023-04-09T10:53:00.483Z,30.67
2023-04-09T10:55:39.155Z,31.54
2023-04-09T10:58:13.975Z,31.54
2023-04-09T11:00:43.528Z,31.83
2023-04-09T11:03:22.005Z,31.55
2023-04-09T11:06:11.167Z,30.57
2023-04-09T11:08:39.716Z,29.32
2023-04-09T11:11:09.107Z,28.00
2023-04-09T11:13:36.931Z,26.66
2023-04-09T11:16:07.534Z,25.79
2023-04-09T11:18:35.840Z,25.56
2023-04-09T11:21:07.186Z,24.69
2023-04-09T11:23:36.394Z,24.17
2023-04-09T11:26:04.282Z,23.74
2023-04-09T11:28:35.791Z,22.78
2023-04-09T11:31:07.463Z,23.75
2023-04-09T11:33:35.847Z,24.34
2023-04-09T11:36:06.838Z,24.26
2023-04-09T11:38:38.976Z,24.05
2023-04-09T11:41:06.511Z,23.74
2023-04-09T11:43:37.032Z,23.40
2023-04-09T11:46:04.785Z,23.33
2023-04-09T11:48:33.018Z,23.32
2023-04-09T11:51:04.511Z,24.10
2023-04-09T11:53:33.033Z,25.07
2023-04-09T11:56:00.185Z,25.57
2023-04-09T11:58:28.408Z,25.63
2023-04-09T12:00:58.704Z,25.43
2023-04-09T12:03:30.514Z,25.59
2023-04-09T12:06:02.057Z,26.15
2023-04-09T12:08:30.157Z,26.72
2023-04-09T12:10:57.764Z,27.12
2023-04-09T12:13:34.214Z,27.85
2023-04-09T12:16:03.455Z,28.61
2023-04-09T12:18:31.482Z,29.28
2023-04-09T12:20:59.565Z,29.95
2023-04-09T12:23:26.777Z,30.41
2023-04-09T12:25:55.868Z,30.57
2023-04-09T12:28:23.180Z,30.73
2023-04-09T12:30:52.127Z,30.82
2023-04-09T12:33:19.703Z,30.89
2023-04-09T12:35:47.312Z,30.74
2023-04-09T12:38:15.703Z,30.45
2023-04-09T12:40:43.486Z,30.16
2023-04-09T12:43:12.492Z,30.21
2023-04-09T12:45:41.417Z,30.63
2023-04-09T12:48:09.502Z,30.77
2023-04-09T12:50:36.955Z,30.63
2023-04-09T12:53:04.047Z,30.71
2023-04-09T12:55:31.428Z,30.44
2023-04-09T12:57:58.570Z,29.98
2023-04-09T13:00:26.057Z,29.64
2023-04-09T13:02:56.174Z,29.53
2023-04-09T13:05:25.235Z,29.44
2023-04-09T13:07:53.008Z,29.49
2023-04-09T13:10:21.034Z,29.30
2023-04-09T13:12:48.647Z,28.96
2023-04-09T13:15:17.012Z,28.24
2023-04-09T13:17:44.947Z,27.20
2023-04-09T13:20:12.360Z,26.68
2023-04-09T13:22:39.958Z,26.08
2023-04-09T13:25:07.719Z,25.50
2023-04-09T13:27:35.098Z,25.44
2023-04-09T13:30:02.268Z,25.13
2023-04-09T13:32:29.931Z,24.51
2023-04-09T13:34:58.106Z,24.00
2023-04-09T13:37:26.266Z,22.84
2023-04-09T13:39:54.086Z,22.50
2023-04-09T13:42:22.747Z,22.56
2023-04-09T13:44:49.709Z,22.51
2023-04-09T13:47:18.460Z,22.18
2023-04-09T13:49:46.618Z,20.91
2023-04-09T13:52:15.873Z,20.31
2023-04-09T13:54:46.409Z,19.27
2023-04-09T13:57:13.445Z,19.46
2023-04-09T13:59:43.742Z,19.56
2023-04-09T14:02:11.707Z,19.35
2023-04-09T14:04:39.071Z,19.23
2023-04-09T14:07:06.888Z,18.98
2023-04-09T14:09:34.568Z,18.98
2023-04-09T14:12:02.259Z,18.70
2023-04-09T14:14:30.141Z,18.32
2023-04-09T14:16:57.702Z,17.93
2023-04-09T14:19:25.047Z,17.46
2023-04-09T14:21:55.929Z,16.97
2023-04-09T14:24:24.114Z,16.37
2023-04-09T14:26:53.787Z,16.18
2023-04-09T14:29:22.151Z,15.98
2023-04-09T14:31:50.060Z,15.69
2023-04-09T14:34:17.567Z,15.39
2023-04-09T14:36:44.738Z,15.14
2023-04-09T14:39:12.550Z,15.04
2023-04-09T14:41:39.953Z,14.82
2023-04-09T14:44:08.923Z,14.73
2023-04-09T14:46:37.774Z,14.49
2023-04-09T14:49:05.060Z,14.21
2023-04-09T14:51:32.494Z,14.17
2023-04-09T14:53:59.695Z,14.00
2023-04-09T14:56:27.425Z,13.95
2023-04-09T14:58:54.929Z,13.82
2023-04-09T15:01:22.890Z,13.70
2023-04-09T15:03:50.756Z,13.56
2023-04-09T15:06:17.812Z,13.46
2023-04-09T15:08:46.158Z,13.40
2023-04-09T15:11:17.886Z,13.37
2023-04-09T15:13:46.094Z,13.34
2023-04-09T15:16:24.515Z,13.30
2023-04-09T15:18:52.871Z,13.19
2023-04-09T15:21:20.934Z,13.02
2023-04-09T15:23:51.591Z,12.77
2023-04-09T15:26:19.210Z,12.56
2023-04-09T15:28:46.724Z,12.42
2023-04-09T15:31:14.605Z,12.35
2023-04-09T15:33:44.263Z,12.22
2023-04-09T15:36:12.814Z,12.14
2023-04-09T15:38:40.791Z,12.05
2023-04-09T15:41:08.717Z,11.99
2023-04-09T15:43:36.529Z,11.88
2023-04-09T15:46:11.519Z,11.80
2023-04-09T15:48:38.756Z,11.59
2023-04-09T15:51:06.226Z,11.63
2023-04-09T15:53:33.182Z,11.48
2023-04-09T15:56:00.680Z,11.48
2023-04-09T15:58:29.118Z,11.38
2023-04-09T16:00:57.250Z,11.48
2023-04-09T16:03:25.252Z,11.47
2023-04-09T16:05:52.242Z,11.51
2023-04-09T16:08:19.353Z,11.52
2023-04-09T16:10:46.106Z,11.56
2023-04-09T16:13:13.331Z,11.57
2023-04-09T16:15:40.619Z,11.57
2023-04-09T16:18:08.482Z,11.59
2023-04-09T16:20:36.714Z,11.58
2023-04-09T16:23:04.500Z,11.56
2023-04-09T16:25:32.110Z,11.52
2023-04-09T16:28:00.361Z,11.48
2023-04-09T16:30:29.258Z,11.44
2023-04-09T16:32:58.572Z,11.33
2023-04-09T16:35:26.432Z,11.28
2023-04-09T16:37:56.255Z,11.24
2023-04-09T16:40:24.706Z,11.16
2023-04-09T16:42:52.023Z,11.11
2023-04-09T16:45:19.278Z,11.03
2023-04-09T16:47:50.132Z,11.05
2023-04-09T16:50:19.622Z,10.96
2023-04-09T16:52:47.619Z,10.97
2023-04-09T16:55:16.005Z,10.96
2023-04-09T16:57:43.391Z,10.99
2023-04-09T17:00:14.174Z,10.94
2023-04-09T17:02:41.911Z,10.81
2023-04-09T17:05:09.745Z,10.80
2023-04-09T17:07:36.650Z,10.79
2023-04-09T17:10:03.531Z,10.76
2023-04-09T17:12:31.395Z,10.78
2023-04-09T17:14:58.798Z,10.72
2023-04-09T17:17:26.119Z,10.76
2023-04-09T17:19:53.627Z,10.85
2023-04-09T17:22:20.715Z,10.82
2023-04-09T17:24:50.067Z,10.78
2023-04-09T17:27:17.244Z,10.75
2023-04-09T17:29:44.508Z,10.81
2023-04-09T17:32:11.639Z,10.83
2023-04-09T17:34:38.901Z,10.84
2023-04-09T17:37:05.998Z,10.88
2023-04-09T17:39:33.447Z,10.89
2023-04-09T17:42:01.824Z,10.88
2023-04-09T17:44:29.144Z,10.85
2023-04-09T17:46:56.544Z,10.85
2023-04-09T17:49:23.854Z,10.85
2023-04-09T17:51:51.437Z,10.84
2023-04-09T17:54:18.578Z,10.82
2023-04-09T17:56:45.895Z,10.74
2023-04-09T17:59:13.696Z,10.74
2023-04-09T18:01:41.337Z,10.73
2023-04-09T18:04:08.580Z,10.73
2023-04-09T18:06:38.524Z,10.69
2023-04-09T18:09:05.643Z,10.81
2023-04-09T18:11:32.757Z,10.70
2023-04-09T18:14:00.136Z,10.62
2023-04-09T18:16:27.394Z,10.69
2023-04-09T18:18:55.272Z,10.75
2023-04-09T18:21:24.862Z,10.75
2023-04-09T18:23:52.357Z,10.81
2023-04-09T18:26:19.694Z,10.79
2023-04-09T18:28:46.618Z,10.86
2023-04-09T18:31:13.899Z,10.88
2023-04-09T18:33:41.382Z,10.82
2023-04-09T18:36:09.270Z,10.81
2023-04-09T18:38:37.096Z,10.82
2023-04-09T18:41:04.403Z,10.89
2023-04-09T18:43:31.554Z,10.93
2023-04-09T18:45:59.389Z,10.83
2023-04-09T18:48:26.764Z,10.75
2023-04-09T18:50:53.685Z,10.55
2023-04-09T18:53:21.144Z,10.58
2023-04-09T18:55:48.295Z,10.49
2023-04-09T18:58:16.340Z,10.48
2023-04-09T19:00:43.900Z,10.46
2023-04-09T19:03:12.424Z,10.49
2023-04-09T19:05:40.099Z,10.52
2023-04-09T19:08:07.635Z,10.49
2023-04-09T19:10:35.033Z,10.43
2023-04-09T19:13:04.570Z,10.45
2023-04-09T19:15:31.462Z,10.45
2023-04-09T19:17:58.466Z,10.39
2023-04-09T19:20:25.676Z,10.43
2023-04-09T19:22:54.649Z,10.52
2023-04-09T19:25:23.528Z,10.59
2023-04-09T19:27:50.960Z,10.61
2023-04-09T19:30:20.183Z,10.68
2023-04-09T19:32:47.269Z,10.69
2023-04-09T19:35:14.688Z,10.71
2023-04-09T19:37:41.804Z,10.74
2023-04-09T19:40:09.257Z,10.80
2023-04-09T19:42:36.473Z,10.86
2023-04-09T19:45:03.563Z,10.89
2023-04-09T19:47:30.953Z,10.89
2023-04-09T19:49:58.541Z,10.89
2023-04-09T19:52:26.351Z,10.92
2023-04-09T19:54:56.905Z,10.87
2023-04-09T19:57:26.636Z,10.99
2023-04-09T19:59:54.338Z,11.03
2023-04-09T20:02:21.527Z,11.03
2023-04-09T20:04:48.948Z,10.99
2023-04-09T20:07:16.345Z,10.98
2023-04-09T20:09:43.785Z,11.09
2023-04-09T20:12:10.798Z,11.02
2023-04-09T20:14:40.785Z,10.91
2023-04-09T20:17:09.854Z,11.05
2023-04-09T20:19:37.935Z,11.05
2023-04-09T20:22:05.162Z,11.03
2023-04-09T20:24:32.385Z,11.03
2023-04-09T20:27:00.252Z,11.08
2023-04-09T20:29:27.863Z,11.08
2023-04-09T20:31:54.938Z,11.09
2023-04-09T20:34:27.009Z,11.07
2023-04-09T20:36:55.820Z,11.09
2023-04-09T20:39:25.549Z,11.06
2023-04-09T20:41:56.875Z,11.06
2023-04-09T20:44:24.956Z,11.04
2023-04-09T20:46:52.238Z,11.06
2023-04-09T20:49:19.524Z,11.08
2023-04-09T20:51:46.829Z,11.08
2023-04-09T20:54:13.864Z,11.07
2023-04-09T20:56:41.212Z,11.08
2023-04-09T20:59:08.302Z,11.07
2023-04-09T21:01:36.468Z,11.09
2023-04-09T21:04:04.439Z,10.97
2023-04-09T21:06:31.901Z,11.02
2023-04-09T21:08:59.880Z,10.94
2023-04-09T21:11:27.146Z,10.90
2023-04-09T21:13:55.263Z,10.94
2023-04-09T21:16:23.599Z,10.99
2023-04-09T21:18:51.352Z,10.95
2023-04-09T21:21:19.324Z,10.98
2023-04-09T21:23:46.514Z,11.04
2023-04-09T21:26:15.293Z,11.09
2023-04-09T21:28:42.570Z,11.13
2023-04-09T21:31:11.244Z,11.06
2023-04-09T21:33:39.589Z,11.15
2023-04-09T21:36:08.132Z,11.20
2023-04-09T21:38:35.507Z,11.09
2023-04-09T21:41:03.053Z,11.06
2023-04-09T21:43:30.437Z,11.02
2023-04-09T21:45:57.918Z,11.00
2023-04-09T21:48:26.549Z,10.89
2023-04-09T21:50:54.034Z,10.88
2023-04-09T21:53:21.665Z,10.89
2023-04-09T21:55:49.309Z,10.78
2023-04-09T21:58:16.757Z,10.80
2023-04-09T22:00:44.298Z,10.78
2023-04-09T22:03:12.800Z,10.70
2023-04-09T22:05:40.028Z,10.78
2023-04-09T22:08:07.516Z,10.66
2023-04-09T22:10:34.606Z,10.54
2023-04-09T22:13:01.517Z,10.55
2023-04-09T22:15:29.363Z,10.64
2023-04-09T22:17:56.456Z,10.64
2023-04-09T22:20:25.184Z,10.62
2023-04-09T22:22:54.382Z,10.64
2023-04-09T22:25:22.598Z,10.71
2023-04-09T22:27:53.419Z,10.76
2023-04-09T22:30:24.608Z,10.69
2023-04-09T22:32:51.975Z,10.75
2023-04-09T22:35:19.530Z,10.72
2023-04-09T22:37:47.258Z,10.70
2023-04-09T22:40:16.321Z,10.71
2023-04-09T22:42:44.721Z,10.67
2023-04-09T22:45:13.008Z,10.69
2023-04-09T22:47:42.858Z,10.67
2023-04-09T22:50:11.754Z,10.60
2023-04-09T22:52:39.009Z,10.44
2023-04-09T22:55:06.634Z,10.52
2023-04-09T22:57:33.756Z,10.49
2023-04-09T23:00:00.870Z,10.32
2023-04-09T23:02:27.836Z,10.28
2023-04-09T23:04:55.349Z,10.39
2023-04-09T23:07:22.580Z,10.41
2023-04-09T23:09:49.751Z,10.36
2023-04-09T23:12:16.655Z,10.36
2023-04-09T23:14:44.036Z,10.38
2023-04-09T23:17:11.345Z,10.33
2023-04-09T23:19:38.285Z,10.45
2023-04-09T23:22:05.901Z,10.44
2023-04-09T23:24:33.080Z,10.44
2023-04-09T23:27:00.771Z,10.43
2023-04-09T23:29:27.641Z,10.54
2023-04-09T23:31:55.028Z,10.60
2023-04-09T23:34:22.009Z,10.66
2023-04-09T23:36:48.843Z,10.72
2023-04-09T23:39:15.726Z,10.71
2023-04-09T23:41:42.826Z,10.80
2023-04-09T23:44:10.169Z,10.83
2023-04-09T23:46:37.503Z,10.83
2023-04-09T23:49:04.629Z,10.78
2023-04-09T23:51:31.900Z,10.69
2023-04-09T23:53:58.795Z,10.66
2023-04-09T23:56:25.627Z,10.74
2023-04-09T23:58:52.615Z,10.73
